Time;durP1;ratioP1;P1;durP2;ratioP2;P2;SDS_P1;SDS_P2;PMS_P1;PMS_P2;Temp;Humidity;BMP_temperature;BMP_pressure;BME280_temperature;BME280_humidity;BME280_pressure;Samples;Min_cycle;Max_cycle;Signal;HPM_P1;HPM_P2
2021/06/04 00:01:30;;;;;;;5.55;3.92;;;;;;;16.29;52.70;100227.45;1666217;84;21090;-71
2021/06/04 00:03:58;;;;;;;4.42;3.92;;;;;;;16.30;52.65;100229.09;1695502;84;20952;-71
2021/06/04 00:06:25;;;;;;;5.62;3.87;;;;;;;16.30;52.78;100230.98;1678339;84;20952;-72
2021/06/04 00:08:52;;;;;;;5.90;3.65;;;;;;;16.29;52.81;100230.17;1675815;85;21070;-70
2021/06/04 00:11:33;;;;;;;5.00;3.30;;;;;;;16.28;52.98;100223.64;1650297;85;21958;-72
2021/06/04 00:14:07;;;;;;;9.95;4.65;;;;;;;16.28;52.79;100224.47;1675791;85;21590;-71
2021/06/04 00:16:42;;;;;;;6.47;4.08;;;;;;;16.23;53.10;100231.80;1675689;85;21060;-71
2021/06/04 00:19:13;;;;;;;5.33;4.03;;;;;;;16.22;53.12;100235.59;1675399;85;21065;-72
2021/06/04 00:21:48;;;;;;;5.25;4.40;;;;;;;16.18;53.30;100233.97;1648377;87;21014;-72
2021/06/04 00:24:17;;;;;;;8.13;4.20;;;;;;;16.17;53.27;100236.95;1651781;85;21058;-72
2021/06/04 00:26:45;;;;;;;4.53;3.60;;;;;;;16.16;53.27;100232.09;1663844;85;21051;-72
2021/06/04 00:29:12;;;;;;;4.08;3.60;;;;;;;16.16;53.28;100232.09;1643202;86;21848;-71
2021/06/04 00:31:39;;;;;;;4.72;3.52;;;;;;;16.17;53.32;100226.91;1666911;86;21543;-75
2021/06/04 00:34:08;;;;;;;4.10;3.70;;;;;;;16.18;53.21;100231.27;1657013;84;21314;-72
2021/06/04 00:36:36;;;;;;;4.37;4.00;;;;;;;16.14;53.24;100227.47;1695369;84;21555;-76
2021/06/04 00:39:05;;;;;;;4.15;3.85;;;;;;;16.12;53.29;100224.20;1695316;84;21039;-76
2021/06/04 00:41:41;;;;;;;4.17;3.77;;;;;;;16.13;53.14;100228.02;1678396;84;21031;-75
2021/06/04 00:44:09;;;;;;;8.90;4.33;;;;;;;16.12;53.51;100234.52;1675431;85;20928;-73
2021/06/04 00:46:39;;;;;;;10.38;4.37;;;;;;;16.10;53.60;100229.11;1692490;83;21009;-70
2021/06/04 00:49:07;;;;;;;6.33;3.72;;;;;;;16.08;53.60;100228.02;1685616;85;21498;-70
2021/06/04 00:51:46;;;;;;;5.05;3.40;;;;;;;16.05;53.73;100222.33;1663942;85;21016;-70
2021/06/04 00:54:14;;;;;;;10.05;4.65;;;;;;;16.02;53.73;100225.02;1685689;85;21217;-69
2021/06/04 00:56:46;;;;;;;4.45;4.05;;;;;;;16.02;53.83;100223.67;1685508;84;21258;-68
2021/06/04 00:59:13;;;;;;;4.25;3.85;;;;;;;16.01;53.77;100216.64;1690857;83;21586;-70
2021/06/04 01:01:41;;;;;;;5.25;4.30;;;;;;;15.98;53.99;100217.70;1668855;84;21529;-72
2021/06/04 01:04:13;;;;;;;8.00;4.22;;;;;;;15.95;54.08;100225.86;1696641;83;21061;-71
2021/06/04 01:07:09;;;;;;;6.00;4.50;;;;;;;15.93;54.21;100225.30;1692330;83;21115;-72
2021/06/04 01:10:13;;;;;;;6.30;4.53;;;;;;;15.91;54.13;100220.71;1681091;83;21059;-74
2021/06/04 01:12:51;;;;;;;6.45;4.65;;;;;;;15.91;54.12;100226.67;1701098;84;21075;-71
2021/06/04 01:15:44;;;;;;;4.85;3.27;;;;;;;15.93;54.02;100223.13;1692836;84;21116;-74
2021/06/04 01:18:57;;;;;;;4.83;4.37;;;;;;;15.95;53.82;100225.86;1673831;85;21640;-75
2021/06/04 01:21:50;;;;;;;8.28;5.03;;;;;;;15.96;53.83;100228.85;1673705;85;21286;-73
2021/06/04 01:24:46;;;;;;;5.42;4.47;;;;;;;15.95;54.05;100226.40;1676650;84;21031;-74
2021/06/04 01:27:19;;;;;;;5.62;4.40;;;;;;;15.91;54.22;100229.39;1698698;83;21042;-73
2021/06/04 01:30:19;;;;;;;5.45;4.37;;;;;;;15.88;54.27;100225.84;1700597;84;21583;-74
2021/06/04 01:32:50;;;;;;;5.12;4.65;;;;;;;15.88;54.34;100224.48;1667244;85;21082;-73
2021/06/04 01:35:22;;;;;;;4.40;4.00;;;;;;;15.83;54.46;100225.84;1673749;85;21020;-74
2021/06/04 01:37:50;;;;;;;9.23;5.08;;;;;;;15.80;54.62;100232.64;1650038;85;21119;-76
2021/06/04 01:40:29;;;;;;;11.18;6.35;;;;;;;15.78;54.82;100229.94;1648920;85;21059;-74
2021/06/04 01:43:02;;;;;;;4.58;4.17;;;;;;;15.74;55.00;100237.78;1691117;84;21003;-73
2021/06/04 01:45:33;;;;;;;4.78;4.30;;;;;;;15.73;55.00;100236.72;1641809;86;20964;-75
2021/06/04 01:48:11;;;;;;;4.87;4.37;;;;;;;15.67;55.15;100234.00;1686348;84;21536;-74
2021/06/04 01:50:47;;;;;;;4.50;4.10;;;;;;;15.69;55.03;100235.88;1639559;86;21064;-72
2021/06/04 01:53:32;;;;;;;5.10;4.58;;;;;;;15.69;55.10;100238.59;1690936;84;21029;-73
2021/06/04 01:56:06;;;;;;;6.17;4.80;;;;;;;15.68;55.22;100240.23;1673622;85;21091;-72
2021/06/04 01:58:50;;;;;;;11.18;5.12;;;;;;;15.68;55.17;100236.95;1706273;83;21016;-72
2021/06/04 02:01:30;;;;;;;4.42;3.90;;;;;;;15.69;55.30;100228.28;1654886;84;21131;-73
2021/06/04 02:03:59;;;;;;;4.62;4.22;;;;;;;15.69;55.18;100242.66;1677329;84;21062;-73
2021/06/04 02:06:27;;;;;;;5.58;4.00;;;;;;;15.68;54.87;100228.81;1701740;83;21862;-73
2021/06/04 02:08:57;;;;;;;8.78;3.67;;;;;;;15.71;54.87;100235.62;1701865;84;21068;-72
2021/06/04 02:11:36;;;;;;;6.92;4.47;;;;;;;15.72;54.62;100234.55;1695144;83;21504;-71
2021/06/04 02:14:09;;;;;;;5.05;4.55;;;;;;;15.74;54.83;100231.53;1647674;85;21067;-73
2021/06/04 02:16:54;;;;;;;9.75;5.00;;;;;;;15.73;55.10;100232.08;1677158;84;21012;-73
2021/06/04 02:20:06;;;;;;;4.40;4.10;;;;;;;15.68;54.93;100236.95;1695818;83;21774;-73
2021/06/04 02:23:05;;;;;;;6.05;4.42;;;;;;;15.70;55.12;100233.98;1622419;87;21604;-73
2021/06/04 02:25:54;;;;;;;6.65;4.78;;;;;;;15.70;55.16;100232.63;1650276;84;21019;-72
2021/06/04 02:28:38;;;;;;;5.08;4.58;;;;;;;15.70;55.42;100234.80;1701107;84;21185;-74
2021/06/04 02:31:28;;;;;;;4.87;4.25;;;;;;;15.69;55.58;100239.12;1702032;83;20991;-73
2021/06/04 02:34:17;;;;;;;6.00;5.28;;;;;;;15.64;55.94;100235.88;1660036;84;21043;-76
2021/06/04 02:36:59;;;;;;;6.55;4.62;;;;;;;15.64;56.16;100231.80;1650430;85;20995;-73
2021/06/04 02:39:34;;;;;;;5.00;4.35;;;;;;;15.63;56.31;100226.67;1673795;84;21592;-73
2021/06/04 02:42:14;;;;;;;4.95;4.58;;;;;;;15.63;56.10;100230.17;1678075;84;21980;-73
2021/06/04 02:44:46;;;;;;;9.13;4.72;;;;;;;15.62;56.24;100239.95;1685129;84;20960;-73
2021/06/04 02:47:21;;;;;;;5.10;4.17;;;;;;;15.58;56.72;100232.09;1662710;85;21088;-73
2021/06/04 02:49:47;;;;;;;8.45;4.72;;;;;;;15.53;56.62;100236.97;1650231;85;21079;-79
2021/06/04 02:52:29;;;;;;;4.90;4.40;;;;;;;15.50;57.13;100244.23;1650432;85;21165;-72
2021/06/04 02:54:57;;;;;;;5.78;5.12;;;;;;;15.49;57.37;100241.23;1675779;85;21952;-75
2021/06/04 02:57:27;;;;;;;5.83;5.33;;;;;;;15.47;57.59;100243.96;1660413;85;21013;-74
2021/06/04 02:59:54;;;;;;;6.67;4.90;;;;;;;15.43;57.69;100238.27;1695774;83;21543;-73
2021/06/04 03:02:25;;;;;;;6.42;4.78;;;;;;;15.43;57.54;100241.52;1689270;83;21004;-73
2021/06/04 03:04:56;;;;;;;9.20;5.03;;;;;;;15.44;57.70;100244.50;1663124;85;21052;-73
2021/06/04 03:07:29;;;;;;;7.53;5.40;;;;;;;15.46;57.79;100245.85;1661944;85;21787;-74
2021/06/04 03:10:00;;;;;;;8.80;7.22;;;;;;;15.46;58.03;100249.92;1675679;84;20913;-74
2021/06/04 03:12:33;;;;;;;4.97;4.58;;;;;;;15.45;58.48;100251.53;1624000;87;21092;-73
2021/06/04 03:15:08;;;;;;;4.97;4.47;;;;;;;15.41;58.75;100245.02;1679071;84;20996;-74
2021/06/04 03:17:36;;;;;;;7.17;4.70;;;;;;;15.40;58.96;100245.56;1689435;83;21552;-73
2021/06/04 03:20:08;;;;;;;4.55;4.15;;;;;;;15.39;59.31;100246.66;1677310;85;21224;-75
2021/06/04 03:22:39;;;;;;;10.08;5.15;;;;;;;15.38;59.64;100249.64;1677991;84;21003;-76
2021/06/04 03:25:26;;;;;;;5.87;5.37;;;;;;;15.32;59.98;100250.70;1690137;85;21835;-73
2021/06/04 03:27:54;;;;;;;5.97;5.40;;;;;;;15.30;60.18;100248.81;1665459;85;21076;-74
2021/06/04 03:30:26;;;;;;;5.47;3.65;;;;;;;15.27;60.46;100250.96;1649601;86;21557;-74
2021/06/04 03:32:53;;;;;;;6.03;4.92;;;;;;;15.26;60.57;100253.92;1665162;85;21675;-72
2021/06/04 03:35:21;;;;;;;6.60;5.20;;;;;;;15.23;61.15;100262.06;1667330;85;20992;-72
2021/06/04 03:37:48;;;;;;;11.20;4.58;;;;;;;15.20;60.92;100261.80;1689066;85;20952;-72
2021/06/04 03:40:19;;;;;;;7.67;4.40;;;;;;;15.23;60.85;100262.60;1684875;85;21091;-74
2021/06/04 03:42:48;;;;;;;6.28;4.58;;;;;;;15.23;60.54;100259.36;1689184;85;21028;-72
2021/06/04 03:45:20;;;;;;;5.00;4.10;;;;;;;15.27;60.79;100263.70;1665051;83;21145;-73
2021/06/04 03:47:47;;;;;;;7.42;5.20;;;;;;;15.27;60.98;100259.09;1660972;86;21110;-73
2021/06/04 03:50:14;;;;;;;6.10;5.12;;;;;;;15.25;61.01;100254.47;1661498;85;21060;-74
2021/06/04 03:52:41;;;;;;;5.75;4.95;;;;;;;15.25;60.82;100255.82;1665776;85;21079;-75
2021/06/04 03:55:09;;;;;;;6.85;4.55;;;;;;;15.23;61.08;100253.94;1658454;86;21101;-73
2021/06/04 03:57:36;;;;;;;5.78;5.20;;;;;;;15.29;60.96;100254.77;1662182;85;22206;-72
2021/06/04 04:00:29;;;;;;;12.73;5.12;;;;;;;15.30;60.83;100252.31;1676335;85;21031;-73
2021/06/04 04:02:56;;;;;;;5.23;4.67;;;;;;;15.30;61.12;100255.02;1705134;83;21469;-74
2021/06/04 04:05:23;;;;;;;8.53;5.15;;;;;;;15.35;60.92;100261.02;1662458;85;21530;-73
2021/06/04 04:07:50;;;;;;;6.67;5.05;;;;;;;15.40;60.76;100265.08;1675824;84;20950;-73
2021/06/04 04:10:16;;;;;;;6.37;4.80;;;;;;;15.41;60.57;100264.00;1676186;85;21877;-73
2021/06/04 04:12:43;;;;;;;6.37;5.80;;;;;;;15.42;60.96;100258.86;1670171;84;20976;-73
2021/06/04 04:15:17;;;;;;;9.80;4.85;;;;;;;15.45;60.99;100258.31;1663131;86;21036;-74
2021/06/04 04:17:40;;;;;;;5.70;4.87;;;;;;;15.48;61.11;100260.50;1691736;84;20959;-72
2021/06/04 04:20:09;;;;;;;7.37;5.20;;;;;;;15.52;61.02;100253.49;1666612;84;21452;-72
2021/06/04 04:22:37;;;;;;;5.47;4.62;;;;;;;15.56;60.91;100255.94;1672770;85;21540;-71
2021/06/04 04:25:06;;;;;;;6.55;5.22;;;;;;;15.57;60.91;100261.09;1663362;84;21024;-73
2021/06/04 04:27:32;;;;;;;7.92;6.72;;;;;;;15.64;60.61;100259.46;1662035;85;21078;-73
2021/06/04 04:29:59;;;;;;;10.28;6.75;;;;;;;15.72;60.41;100261.66;1715954;83;21137;-73
2021/06/04 04:32:26;;;;;;;7.87;4.53;;;;;;;15.79;60.29;100261.37;1688428;85;21474;-72
2021/06/04 04:34:54;;;;;;;10.30;4.15;;;;;;;15.86;59.87;100262.76;1689176;85;21172;-72
2021/06/04 04:37:21;;;;;;;13.25;4.85;;;;;;;15.97;59.65;100256.80;1688832;85;21016;-72
2021/06/04 04:39:47;;;;;;;9.13;5.15;;;;;;;16.05;59.30;100262.48;1688436;84;21586;-73
2021/06/04 04:42:17;;;;;;;8.15;5.20;;;;;;;16.14;59.01;100256.78;1663247;85;21827;-72
2021/06/04 04:44:46;;;;;;;4.87;4.37;;;;;;;16.24;58.89;100257.86;1686393;85;21103;-72
2021/06/04 04:47:15;;;;;;;5.30;4.80;;;;;;;16.32;58.55;100259.47;1688835;85;21029;-73
2021/06/04 04:49:42;;;;;;;9.05;5.15;;;;;;;16.44;58.51;100259.20;1685857;85;20981;-72
2021/06/04 04:52:13;;;;;;;5.65;4.40;;;;;;;16.52;58.36;100255.38;1689178;85;20979;-72
2021/06/04 04:54:45;;;;;;;7.90;5.55;;;;;;;16.61;57.65;100252.93;1688982;84;21072;-72
2021/06/04 04:57:12;;;;;;;10.35;7.45;;;;;;;16.69;57.65;100259.72;1661293;85;21048;-73
2021/06/04 04:59:39;;;;;;;9.08;5.60;;;;;;;16.78;57.60;100262.95;1636465;86;21167;-73
2021/06/04 05:02:07;;;;;;;14.63;5.15;;;;;;;16.80;56.66;100263.47;1661169;85;21061;-73
2021/06/04 05:04:33;;;;;;;6.65;4.85;;;;;;;16.85;56.76;100259.92;1636024;86;21009;-72
2021/06/04 05:06:59;;;;;;;7.37;4.70;;;;;;;16.90;56.55;100263.44;1687755;84;21066;-72
2021/06/04 05:09:26;;;;;;;5.55;4.95;;;;;;;16.96;56.25;100255.54;1645640;85;21007;-72
2021/06/04 05:11:54;;;;;;;6.85;4.17;;;;;;;17.05;56.02;100262.56;1658373;86;21161;-72
2021/06/04 05:14:20;;;;;;;6.55;4.58;;;;;;;17.13;55.98;100260.61;1637067;86;21080;-72
2021/06/04 05:16:47;;;;;;;9.40;4.03;;;;;;;17.25;55.59;100254.86;1682487;85;21028;-73
2021/06/04 05:19:14;;;;;;;4.90;3.80;;;;;;;17.37;54.29;100262.94;1682067;85;21104;-72
2021/06/04 05:21:40;;;;;;;15.43;5.03;;;;;;;17.48;53.20;100262.88;1681985;85;21060;-72
2021/06/04 05:24:08;;;;;;;5.45;3.40;;;;;;;17.56;53.13;100251.40;1681739;85;21500;-73
2021/06/04 05:26:34;;;;;;;6.72;4.37;;;;;;;17.64;52.73;100257.66;1667640;84;20920;-72
2021/06/04 05:29:01;;;;;;;5.47;3.37;;;;;;;17.71;52.28;100256.77;1705296;83;21064;-72
2021/06/04 05:31:28;;;;;;;7.30;3.70;;;;;;;17.77;51.16;100258.37;1705070;84;21063;-72
2021/06/04 05:33:55;;;;;;;7.42;3.42;;;;;;;17.85;50.99;100261.84;1705437;84;20996;-73
2021/06/04 05:36:29;;;;;;;9.40;3.50;;;;;;;17.92;51.21;100265.06;1704336;84;21057;-73
2021/06/04 05:38:55;;;;;;;4.15;3.52;;;;;;;18.00;51.17;100260.36;1678112;84;21076;-72
2021/06/04 05:41:21;;;;;;;8.58;3.47;;;;;;;18.07;51.15;100261.41;1677994;84;21532;-74
2021/06/04 05:43:48;;;;;;;4.55;2.83;;;;;;;18.14;50.83;100259.97;1704064;84;21043;-72
2021/06/04 05:46:16;;;;;;;5.87;3.22;;;;;;;18.20;49.93;100267.00;1700948;84;21584;-74
2021/06/04 05:48:43;;;;;;;6.47;4.03;;;;;;;18.25;50.33;100258.79;1647221;87;21133;-72
2021/06/04 05:51:23;;;;;;;5.40;2.98;;;;;;;18.33;50.81;100257.89;1637536;87;21539;-72
2021/06/04 05:53:50;;;;;;;5.28;3.40;;;;;;;18.40;50.71;100258.38;1665577;85;21064;-72
2021/06/04 05:56:19;;;;;;;11.08;3.92;;;;;;;18.49;50.08;100252.56;1665906;86;21126;-72
2021/06/04 05:58:45;;;;;;;3.45;2.90;;;;;;;18.57;48.90;100260.94;1674139;84;20952;-72
2021/06/04 06:01:17;;;;;;;8.40;2.70;;;;;;;18.65;47.74;100267.14;1665838;85;21069;-72
2021/06/04 06:03:44;;;;;;;19.55;3.70;;;;;;;18.71;47.48;100261.88;1693886;84;21055;-73
2021/06/04 06:06:12;;;;;;;9.15;3.00;;;;;;;18.76;47.67;100270.55;1658680;85;21032;-74
2021/06/04 06:08:41;;;;;;;13.53;3.77;;;;;;;18.79;46.24;100265.90;1642293;86;21011;-73
2021/06/04 06:11:09;;;;;;;9.38;3.00;;;;;;;18.83;45.49;100262.03;1670412;84;21564;-73
2021/06/04 06:13:38;;;;;;;10.75;3.40;;;;;;;18.90;46.30;100257.03;1693673;84;20905;-73
2021/06/04 06:16:06;;;;;;;12.73;3.02;;;;;;;18.95;46.20;100263.23;1669641;84;21735;-73
2021/06/04 06:18:32;;;;;;;7.60;2.95;;;;;;;19.00;45.30;100264.53;1669613;84;21027;-72
2021/06/04 06:20:59;;;;;;;11.73;3.22;;;;;;;19.06;45.44;100266.11;1681213;84;21035;-72
2021/06/04 06:23:30;;;;;;;6.97;2.62;;;;;;;19.11;44.68;100266.05;1665821;85;21076;-73
2021/06/04 06:26:02;;;;;;;6.15;2.40;;;;;;;19.18;44.70;100258.06;1677653;84;21823;-72
2021/06/04 06:28:33;;;;;;;6.53;3.30;;;;;;;19.25;43.40;100255.78;1693662;84;21536;-72
2021/06/04 06:31:03;;;;;;;6.45;3.58;;;;;;;19.31;43.79;100262.24;1670833;84;21027;-72
2021/06/04 06:33:29;;;;;;;14.47;2.98;;;;;;;19.38;43.83;100259.13;1690687;84;21671;-73
2021/06/04 06:36:03;;;;;;;6.58;3.05;;;;;;;19.41;42.06;100259.93;1666516;84;21019;-72
2021/06/04 06:38:29;;;;;;;5.70;2.95;;;;;;;19.44;41.74;100262.09;1665633;86;21038;-73
2021/06/04 06:40:58;;;;;;;6.42;2.58;;;;;;;19.46;41.70;100259.34;1665703;85;21052;-73
2021/06/04 06:43:27;;;;;;;6.17;3.15;;;;;;;19.51;42.13;100258.45;1665799;86;20999;-73
2021/06/04 06:45:55;;;;;;;8.75;3.45;;;;;;;19.54;42.33;100261.39;1665598;85;21087;-74
2021/06/04 06:48:22;;;;;;;12.13;3.10;;;;;;;19.58;42.92;100257.52;1648720;85;21773;-72
2021/06/04 06:50:49;;;;;;;8.83;2.83;;;;;;;19.62;42.70;100266.73;1673849;85;21791;-73
2021/06/04 06:53:15;;;;;;;6.65;2.72;;;;;;;19.66;42.14;100262.33;1658973;85;21046;-73
2021/06/04 06:55:44;;;;;;;2.98;2.17;;;;;;;19.70;41.38;100263.36;1631250;87;21004;-73
2021/06/04 06:58:11;;;;;;;11.33;2.98;;;;;;;19.72;41.01;100254.30;1646167;86;21025;-73
2021/06/04 07:00:41;;;;;;;3.75;2.25;;;;;;;19.76;40.83;100258.05;1645612;86;21065;-74
2021/06/04 07:03:08;;;;;;;3.22;2.92;;;;;;;19.82;40.42;100256.88;1621119;86;21062;-74
2021/06/04 07:05:36;;;;;;;10.85;2.85;;;;;;;19.86;40.71;100252.44;1630147;87;21613;-74
2021/06/04 07:08:04;;;;;;;10.20;3.10;;;;;;;19.89;41.49;100251.05;1645769;87;21026;-72
2021/06/04 07:10:32;;;;;;;11.83;3.37;;;;;;;19.96;41.83;100252.28;1672935;85;21424;-73
2021/06/04 07:13:01;;;;;;;8.10;2.30;;;;;;;20.05;40.92;100249.67;1673217;85;21016;-73
2021/06/04 07:15:28;;;;;;;5.40;2.40;;;;;;;20.15;40.57;100239.12;1635578;86;21330;-75
2021/06/04 07:17:57;;;;;;;6.83;2.45;;;;;;;20.24;38.88;100249.06;1645786;87;21052;-73
2021/06/04 07:20:25;;;;;;;5.05;2.52;;;;;;;20.34;38.73;100257.11;1618808;88;21105;-72
2021/06/04 07:22:52;;;;;;;3.58;2.92;;;;;;;20.40;38.52;100244.98;1621057;87;21565;-72
2021/06/04 07:25:18;;;;;;;5.60;2.52;;;;;;;20.50;38.50;100243.18;1673055;85;21051;-73
2021/06/04 07:27:46;;;;;;;4.80;2.55;;;;;;;20.54;37.23;100235.44;1673284;85;21351;-70
2021/06/04 07:30:15;;;;;;;3.95;1.87;;;;;;;20.56;37.45;100244.71;1673140;85;20967;-72
2021/06/04 07:32:42;;;;;;;10.18;2.33;;;;;;;20.62;36.89;100247.61;1657493;85;21531;-76
2021/06/04 07:35:13;;;;;;;6.12;2.90;;;;;;;20.64;35.96;100246.73;1649602;85;21132;-75
2021/06/04 07:37:39;;;;;;;9.50;2.52;;;;;;;20.67;36.09;100246.92;1673706;85;21055;-73
2021/06/04 07:40:09;;;;;;;7.35;2.12;;;;;;;20.72;36.39;100240.00;1673331;85;21515;-74
2021/06/04 07:42:36;;;;;;;10.30;2.25;;;;;;;20.73;35.03;100244.91;1657632;85;20964;-77
2021/06/04 07:45:06;;;;;;;3.35;2.02;;;;;;;20.72;35.58;100246.83;1657629;85;20980;-73
2021/06/04 07:47:33;;;;;;;7.12;2.87;;;;;;;20.72;34.49;100238.62;1689492;83;21058;-72
2021/06/04 07:50:00;;;;;;;4.25;1.85;;;;;;;20.74;35.43;100238.34;1716373;83;21072;-72
2021/06/04 07:52:26;;;;;;;9.43;2.47;;;;;;;20.78;35.44;100237.98;1690282;83;21070;-74
2021/06/04 07:54:58;;;;;;;7.22;2.80;;;;;;;20.80;35.39;100240.68;1705757;83;21493;-73
2021/06/04 07:57:21;;;;;;;5.22;2.50;;;;;;;20.81;35.55;100249.11;1715932;83;21020;-75
2021/06/04 07:59:47;;;;;;;3.72;2.55;;;;;;;20.87;35.89;100236.15;1646884;85;21070;-73
2021/06/04 08:02:14;;;;;;;3.45;2.17;;;;;;;20.95;33.93;100229.17;1708753;83;21056;-71
2021/06/04 08:04:43;;;;;;;4.12;2.25;;;;;;;20.96;34.09;100237.05;1716119;83;21010;-74
2021/06/04 08:07:09;;;;;;;8.13;2.33;;;;;;;21.03;34.69;100239.39;1661881;83;21122;-71
2021/06/04 08:09:41;;;;;;;6.40;3.22;;;;;;;21.11;33.51;100227.16;1715903;83;21532;-72
2021/06/04 08:12:07;;;;;;;5.97;2.27;;;;;;;21.06;33.49;100241.50;1689465;83;21539;-72
2021/06/04 08:14:35;;;;;;;4.70;1.90;;;;;;;21.05;33.39;100241.27;1702504;83;20956;-72
2021/06/04 08:17:02;;;;;;;6.55;2.42;;;;;;;21.08;33.19;100240.66;1641904;85;21158;-72
2021/06/04 08:19:30;;;;;;;4.40;2.08;;;;;;;21.10;33.62;100231.01;1649495;86;20952;-74
2021/06/04 08:21:57;;;;;;;18.20;2.60;;;;;;;21.12;33.50;100230.71;1668425;84;20968;-76
2021/06/04 08:24:29;;;;;;;5.97;2.55;;;;;;;21.20;33.33;100233.55;1658205;86;21832;-71
2021/06/04 08:26:56;;;;;;;6.28;2.30;;;;;;;21.24;32.95;100235.95;1687169;85;20948;-76
2021/06/04 08:29:23;;;;;;;4.25;1.57;;;;;;;21.25;33.08;100233.45;1633728;86;21091;-75
2021/06/04 08:31:50;;;;;;;9.05;2.05;;;;;;;21.30;32.92;100232.52;1636142;86;21003;-72
2021/06/04 08:34:16;;;;;;;5.30;1.65;;;;;;;21.42;33.62;100232.81;1661130;85;21517;-88
2021/06/04 08:36:45;;;;;;;5.60;2.17;;;;;;;21.42;33.62;100232.81;1659780;86;21047;-74
2021/06/04 08:39:18;;;;;;;4.92;1.70;;;;;;;21.46;33.59;100229.70;1636186;86;21066;-73
2021/06/04 08:42:13;;;;;;;2.30;1.80;;;;;;;21.49;33.37;100231.81;1687466;85;21110;-71
2021/06/04 08:45:15;;;;;;;3.98;2.30;;;;;;;21.49;33.41;100226.89;1661317;86;20971;-74
2021/06/04 08:47:42;;;;;;;8.00;2.00;;;;;;;21.44;32.84;100219.61;1659883;85;21097;-72
2021/06/04 08:50:23;;;;;;;3.35;2.10;;;;;;;21.40;32.13;100230.12;1679019;85;21031;-86
2021/06/04 08:53:03;;;;;;;9.03;2.00;;;;;;;21.38;32.48;100228.27;1681551;84;21521;-73
2021/06/04 08:55:44;;;;;;;5.97;1.85;;;;;;;21.38;32.83;100231.81;1706382;83;21557;-73
2021/06/04 08:58:36;;;;;;;14.03;2.47;;;;;;;21.44;33.24;100224.30;1696767;84;20992;-74
2021/06/04 09:01:14;;;;;;;4.22;1.80;;;;;;;21.59;33.11;100228.84;1688239;84;20968;-75
2021/06/04 09:03:48;;;;;;;3.15;2.30;;;;;;;21.68;32.36;100225.61;1660814;85;21469;-72
2021/06/04 09:06:29;;;;;;;7.35;2.50;;;;;;;21.66;32.36;100227.87;1642497;86;21067;-73
2021/06/04 09:09:07;;;;;;;5.20;2.20;;;;;;;21.63;32.45;100232.58;1628621;86;21021;-72
2021/06/04 09:11:38;;;;;;;6.72;2.30;;;;;;;21.64;33.60;100223.25;1665813;85;21000;-72
2021/06/04 09:14:07;;;;;;;4.97;2.50;;;;;;;21.74;32.76;100215.34;1642839;86;21015;-76
2021/06/04 09:16:48;;;;;;;6.55;2.30;;;;;;;21.84;32.52;100223.32;1665503;85;21355;-77
2021/06/04 09:19:59;;;;;;;3.62;2.25;;;;;;;21.92;32.63;100225.30;1643170;86;21112;-73
2021/06/04 09:22:31;;;;;;;7.97;2.67;;;;;;;21.97;31.90;100225.20;1671945;84;20967;-78
2021/06/04 09:24:57;;;;;;;7.53;2.15;;;;;;;21.97;32.03;100213.44;1691422;84;21637;-74
2021/06/04 09:27:37;;;;;;;9.90;3.50;;;;;;;22.03;31.99;100212.20;1667530;84;21035;-74
2021/06/04 09:30:23;;;;;;;3.62;2.47;;;;;;;21.90;32.37;100212.50;1691448;84;21074;-73
2021/06/04 09:33:19;;;;;;;5.08;2.27;;;;;;;21.90;32.63;100212.50;1681753;84;21040;-72
2021/06/04 09:36:20;;;;;;;9.05;2.12;;;;;;;21.97;32.48;100209.33;1681370;84;21081;-73
2021/06/04 09:39:05;;;;;;;8.00;2.60;;;;;;;22.08;32.42;100200.55;1681724;84;20999;-72
2021/06/04 09:41:39;;;;;;;5.97;2.60;;;;;;;22.22;32.68;100204.57;1659464;85;21500;-72
2021/06/04 09:44:20;;;;;;;11.22;4.78;;;;;;;22.27;31.27;100200.88;1688574;84;21059;-74
2021/06/04 09:47:07;;;;;;;12.20;2.40;;;;;;;22.24;31.40;100201.52;1684760;84;21095;-74
2021/06/04 09:49:45;;;;;;;4.60;1.67;;;;;;;22.23;31.99;100195.23;1689722;83;21424;-73
2021/06/04 09:52:35;;;;;;;6.05;2.90;;;;;;;22.26;31.01;100193.78;1688869;83;21552;-74
2021/06/04 09:55:22;;;;;;;6.42;2.35;;;;;;;22.17;31.38;100191.81;1707370;83;21075;-71
2021/06/04 09:58:05;;;;;;;16.30;3.27;;;;;;;22.16;31.53;100183.89;1686603;83;21052;-73
2021/06/04 10:00:40;;;;;;;7.08;2.17;;;;;;;22.16;31.47;100194.30;1715496;83;20972;-72
2021/06/04 10:03:24;;;;;;;6.92;1.98;;;;;;;22.25;31.03;100190.81;1677825;85;20988;-75
2021/06/04 10:06:09;;;;;;;6.10;1.90;;;;;;;22.28;31.25;100197.03;1629376;86;21099;-71
2021/06/04 10:08:48;;;;;;;2.62;1.85;;;;;;;22.26;30.78;100198.70;1652952;86;21091;-76
2021/06/04 10:11:26;;;;;;;3.17;1.80;;;;;;;22.29;30.92;100187.69;1654572;86;21107;-71
2021/06/04 10:14:17;;;;;;;3.75;1.75;;;;;;;22.31;31.14;100187.61;1668880;85;21075;-74
2021/06/04 10:19:26;;;;;;;3.87;1.92;;;;;;;22.38;30.36;100197.56;1661291;86;20952;-75
2021/06/04 10:22:15;;;;;;;2.27;1.85;;;;;;;22.38;29.90;100192.08;1689991;85;21050;-74
2021/06/04 10:24:48;;;;;;;2.08;1.60;;;;;;;22.34;30.22;100193.84;1661777;86;21844;-74
2021/06/04 10:27:32;;;;;;;4.53;1.95;;;;;;;22.32;30.24;100188.41;1687820;83;21087;-68
2021/06/04 10:30:15;;;;;;;14.05;2.52;;;;;;;22.28;30.09;100186.88;1652667;85;21052;-73
2021/06/04 10:33:06;;;;;;;4.70;2.58;;;;;;;22.36;30.04;100203.10;1691607;84;20979;-72
2021/06/04 10:35:46;;;;;;;4.25;1.50;;;;;;;22.41;30.07;100193.37;1673449;84;21224;-71
2021/06/04 10:38:38;;;;;;;14.98;2.52;;;;;;;22.42;29.76;100202.66;1672897;85;21067;-69
2021/06/04 10:41:12;;;;;;;2.58;2.25;;;;;;;22.35;30.22;100196.03;1673123;85;21051;-68
2021/06/04 10:44:05;;;;;;;5.22;2.17;;;;;;;22.36;30.56;100197.62;1657153;85;21046;-67
2021/06/04 10:46:44;;;;;;;4.42;1.70;;;;;;;22.46;30.54;100189.93;1657301;85;20999;-66
2021/06/04 10:49:19;;;;;;;3.45;2.50;;;;;;;22.63;29.98;100186.46;1675648;84;20997;-71
2021/06/04 10:51:59;;;;;;;2.30;1.62;;;;;;;22.87;30.09;100186.08;1679808;84;21481;-69
2021/06/04 10:55:02;;;;;;;4.00;2.37;;;;;;;23.06;28.98;100187.16;1679531;85;20994;-70
2021/06/04 10:58:04;;;;;;;1.95;1.45;;;;;;;23.08;29.11;100176.09;1657133;85;21322;-72
2021/06/04 11:00:48;;;;;;;14.03;2.98;;;;;;;23.07;29.19;100188.19;1677004;84;21108;-73
2021/06/04 11:03:23;;;;;;;5.37;3.05;;;;;;;23.06;29.63;100180.30;1657476;85;20996;-80
2021/06/04 11:06:21;;;;;;;10.28;3.25;;;;;;;23.04;29.44;100175.93;1675891;84;20996;-70
2021/06/04 11:09:14;;;;;;;7.78;1.92;;;;;;;23.07;29.32;100177.20;1676261;85;21100;-71
2021/06/04 11:12:23;;;;;;;12.68;2.15;;;;;;;23.22;29.53;100184.17;1676128;85;21060;-73
2021/06/04 11:15:02;;;;;;;8.95;2.42;;;;;;;23.36;29.00;100186.20;1684014;85;21516;-69
2021/06/04 11:17:37;;;;;;;5.47;2.05;;;;;;;23.40;28.80;100172.87;1689156;84;21032;-71
2021/06/04 11:20:18;;;;;;;9.03;2.72;;;;;;;23.44;28.93;100169.77;1708669;83;20981;-69
2021/06/04 11:23:06;;;;;;;2.92;1.90;;;;;;;23.45;28.94;100165.09;1683841;84;21553;-70
2021/06/04 11:25:52;;;;;;;4.97;1.85;;;;;;;23.48;29.08;100180.09;1709153;83;21215;-71
2021/06/04 11:28:44;;;;;;;8.30;1.57;;;;;;;23.41;28.66;100177.80;1687832;84;21074;-83
2021/06/04 11:31:30;;;;;;;3.45;1.70;;;;;;;23.44;28.61;100182.66;1687940;84;20945;-76
2021/06/04 11:33:59;;;;;;;7.47;1.87;;;;;;;23.55;28.73;100170.82;1696701;83;21007;-82
2021/06/04 11:36:30;;;;;;;4.50;2.47;;;;;;;23.63;28.22;100174.93;1682712;84;21511;-76
2021/06/04 11:39:09;;;;;;;6.12;1.80;;;;;;;23.65;28.33;100184.20;1685018;84;22034;-75
2021/06/04 11:41:47;;;;;;;6.62;1.98;;;;;;;23.49;28.06;100183.09;1665584;85;21080;-76
2021/06/04 11:44:43;;;;;;;2.45;1.62;;;;;;;23.38;28.49;100179.83;1681947;84;21016;-76
2021/06/04 11:47:21;;;;;;;3.40;2.22;;;;;;;23.41;28.33;100184.09;1681842;85;21025;-76
2021/06/04 11:50:01;;;;;;;3.22;2.08;;;;;;;23.53;28.77;100172.52;1658418;86;21063;-73
2021/06/04 11:52:48;;;;;;;3.47;1.75;;;;;;;23.71;28.33;100159.56;1684800;85;20987;-71
2021/06/04 11:55:30;;;;;;;4.60;2.30;;;;;;;23.78;28.45;100174.43;1678363;85;20987;-76
2021/06/04 11:58:17;;;;;;;3.75;1.57;;;;;;;23.83;28.02;100172.08;1658301;85;21068;-80
2021/06/04 12:00:46;;;;;;;3.75;2.37;;;;;;;23.81;27.74;100166.09;1689876;85;20973;-79